sensor_id;sensor_type;location;lat;lon;timestamp;temperature;humidity
23063;DHT22;11699;43.704;10.430;2023-04-03T00:02:06;9.50;99.90
23063;DHT22;11699;43.704;10.430;2023-04-03T00:04:34;9.70;99.90
23063;DHT22;11699;43.704;10.430;2023-04-03T00:07:01;9.80;99.90
23063;DHT22;11699;43.704;10.430;2023-04-03T00:09:28;9.90;99.90
23063;DHT22;11699;43.704;10.430;2023-04-03T00:11:55;9.90;99.90
23063;DHT22;11699;43.704;10.430;2023-04-03T00:14:23;9.80;99.90
23063;DHT22;11699;43.704;10.430;2023-04-03T00:16:50;9.70;99.90
23063;DHT22;11699;43.704;10.430;2023-04-03T00:19:19;9.70;99.90
23063;DHT22;11699;43.704;10.430;2023-04-03T00:21:46;9.60;99.90
23063;DHT22;11699;43.704;10.430;2023-04-03T00:24:13;9.50;99.90
23063;DHT22;11699;43.704;10.430;2023-04-03T00:26:41;9.60;99.90
23063;DHT22;11699;43.704;10.430;2023-04-03T00:29:08;9.60;99.90
23063;DHT22;11699;43.704;10.430;2023-04-03T00:31:35;9.50;99.90
23063;DHT22;11699;43.704;10.430;2023-04-03T00:34:03;9.40;99.90
23063;DHT22;11699;43.704;10.430;2023-04-03T00:36:31;9.30;99.90
23063;DHT22;11699;43.704;10.430;2023-04-03T00:38:58;9.30;99.90
23063;DHT22;11699;43.704;10.430;2023-04-03T00:41:26;9.40;99.90
23063;DHT22;11699;43.704;10.430;2023-04-03T00:43:53;9.30;99.90
23063;DHT22;11699;43.704;10.430;2023-04-03T00:46:20;9.40;99.90
23063;DHT22;11699;43.704;10.430;2023-04-03T00:48:48;9.40;99.90
23063;DHT22;11699;43.704;10.430;2023-04-03T00:51:18;9.40;99.90
23063;DHT22;11699;43.704;10.430;2023-04-03T00:53:50;9.30;99.90
23063;DHT22;11699;43.704;10.430;2023-04-03T00:56:21;9.20;99.90
23063;DHT22;11699;43.704;10.430;2023-04-03T00:58:52;9.20;99.90
23063;DHT22;11699;43.704;10.430;2023-04-03T01:01:23;9.20;99.90
23063;DHT22;11699;43.704;10.430;2023-04-03T01:03:51;9.20;99.90
23063;DHT22;11699;43.704;10.430;2023-04-03T01:06:23;9.20;99.90
23063;DHT22;11699;43.704;10.430;2023-04-03T01:08:53;9.10;99.90
23063;DHT22;11699;43.704;10.430;2023-04-03T01:11:22;9.00;99.90
23063;DHT22;11699;43.704;10.430;2023-04-03T01:13:49;9.00;99.90
23063;DHT22;11699;43.704;10.430;2023-04-03T01:16:16;9.00;99.90
23063;DHT22;11699;43.704;10.430;2023-04-03T01:18:44;9.00;99.90
23063;DHT22;11699;43.704;10.430;2023-04-03T01:21:41;9.00;99.90
23063;DHT22;11699;43.704;10.430;2023-04-03T01:24:34;9.10;99.90
23063;DHT22;11699;43.704;10.430;2023-04-03T01:27:05;8.90;99.90
23063;DHT22;11699;43.704;10.430;2023-04-03T01:29:33;8.90;99.90
23063;DHT22;11699;43.704;10.430;2023-04-03T01:32:03;8.80;99.90
23063;DHT22;11699;43.704;10.430;2023-04-03T01:34:31;8.70;99.90
23063;DHT22;11699;43.704;10.430;2023-04-03T01:36:58;8.80;99.90
23063;DHT22;11699;43.704;10.430;2023-04-03T01:39:26;8.80;99.90
23063;DHT22;11699;43.704;10.430;2023-04-03T01:41:53;8.70;99.90
23063;DHT22;11699;43.704;10.430;2023-04-03T01:44:20;8.70;99.90
23063;DHT22;11699;43.704;10.430;2023-04-03T01:46:47;8.70;99.90
23063;DHT22;11699;43.704;10.430;2023-04-03T01:49:16;8.60;99.90
23063;DHT22;11699;43.704;10.430;2023-04-03T01:51:43;8.50;99.90
23063;DHT22;11699;43.704;10.430;2023-04-03T01:54:11;8.50;99.90
23063;DHT22;11699;43.704;10.430;2023-04-03T01:56:38;8.50;99.90
23063;DHT22;11699;43.704;10.430;2023-04-03T01:59:05;8.40;99.90
23063;DHT22;11699;43.704;10.430;2023-04-03T02:01:32;8.40;99.90
23063;DHT22;11699;43.704;10.430;2023-04-03T02:04:00;8.40;99.90
23063;DHT22;11699;43.704;10.430;2023-04-03T02:06:29;8.40;99.90
23063;DHT22;11699;43.704;10.430;2023-04-03T02:08:56;8.40;99.90
23063;DHT22;11699;43.704;10.430;2023-04-03T02:11:23;8.30;99.90
23063;DHT22;11699;43.704;10.430;2023-04-03T02:13:50;8.30;99.90
23063;DHT22;11699;43.704;10.430;2023-04-03T02:16:18;8.30;99.90
23063;DHT22;11699;43.704;10.430;2023-04-03T02:18:45;8.40;99.90
23063;DHT22;11699;43.704;10.430;2023-04-03T02:21:12;8.40;99.90
23063;DHT22;11699;43.704;10.430;2023-04-03T02:23:41;8.40;99.90
23063;DHT22;11699;43.704;10.430;2023-04-03T02:26:10;8.40;99.90
23063;DHT22;11699;43.704;10.430;2023-04-03T02:28:38;8.40;99.90
23063;DHT22;11699;43.704;10.430;2023-04-03T02:31:07;8.30;99.90
23063;DHT22;11699;43.704;10.430;2023-04-03T02:33:35;8.20;99.90
23063;DHT22;11699;43.704;10.430;2023-04-03T02:36:04;8.10;99.90
23063;DHT22;11699;43.704;10.430;2023-04-03T02:38:32;8.20;99.90
23063;DHT22;11699;43.704;10.430;2023-04-03T02:41:03;8.20;99.90
23063;DHT22;11699;43.704;10.430;2023-04-03T02:43:31;8.10;99.90
23063;DHT22;11699;43.704;10.430;2023-04-03T02:45:59;8.10;99.90
23063;DHT22;11699;43.704;10.430;2023-04-03T02:48:27;8.10;99.90
23063;DHT22;11699;43.704;10.430;2023-04-03T02:50:54;8.10;99.90
23063;DHT22;11699;43.704;10.430;2023-04-03T02:53:22;8.10;99.90
23063;DHT22;11699;43.704;10.430;2023-04-03T02:55:49;8.10;99.90
23063;DHT22;11699;43.704;10.430;2023-04-03T02:58:18;8.10;99.90
23063;DHT22;11699;43.704;10.430;2023-04-03T03:00:45;8.00;99.90
23063;DHT22;11699;43.704;10.430;2023-04-03T03:03:13;8.00;99.90
23063;DHT22;11699;43.704;10.430;2023-04-03T03:05:40;7.90;99.90
23063;DHT22;11699;43.704;10.430;2023-04-03T03:08:08;7.90;99.90
23063;DHT22;11699;43.704;10.430;2023-04-03T03:10:35;7.70;99.90
23063;DHT22;11699;43.704;10.430;2023-04-03T03:13:03;7.60;99.90
23063;DHT22;11699;43.704;10.430;2023-04-03T03:15:31;7.70;99.90
23063;DHT22;11699;43.704;10.430;2023-04-03T03:17:59;7.70;99.90
23063;DHT22;11699;43.704;10.430;2023-04-03T03:20:26;7.70;99.90
23063;DHT22;11699;43.704;10.430;2023-04-03T03:22:53;7.70;99.90
23063;DHT22;11699;43.704;10.430;2023-04-03T03:25:20;7.70;99.90
23063;DHT22;11699;43.704;10.430;2023-04-03T03:27:48;7.80;99.90
23063;DHT22;11699;43.704;10.430;2023-04-03T03:30:15;7.70;99.90
23063;DHT22;11699;43.704;10.430;2023-04-03T03:32:44;7.80;99.90
23063;DHT22;11699;43.704;10.430;2023-04-03T03:35:11;8.00;99.90
23063;DHT22;11699;43.704;10.430;2023-04-03T03:37:38;8.00;99.90
23063;DHT22;11699;43.704;10.430;2023-04-03T03:40:07;8.00;99.90
23063;DHT22;11699;43.704;10.430;2023-04-03T03:42:34;7.90;99.90
23063;DHT22;11699;43.704;10.430;2023-04-03T03:45:01;7.80;99.90
23063;DHT22;11699;43.704;10.430;2023-04-03T03:47:28;7.80;99.90
23063;DHT22;11699;43.704;10.430;2023-04-03T03:49:57;7.70;99.90
23063;DHT22;11699;43.704;10.430;2023-04-03T03:52:25;7.70;99.90
23063;DHT22;11699;43.704;10.430;2023-04-03T03:54:53;7.80;99.90
23063;DHT22;11699;43.704;10.430;2023-04-03T03:57:20;7.80;99.90
23063;DHT22;11699;43.704;10.430;2023-04-03T03:59:47;7.80;99.90
23063;DHT22;11699;43.704;10.430;2023-04-03T04:02:14;7.80;99.90
23063;DHT22;11699;43.704;10.430;2023-04-03T04:04:42;7.90;99.90
23063;DHT22;11699;43.704;10.430;2023-04-03T04:07:10;7.90;99.90
23063;DHT22;11699;43.704;10.430;2023-04-03T04:09:38;7.90;99.90
23063;DHT22;11699;43.704;10.430;2023-04-03T04:12:05;7.90;99.90
23063;DHT22;11699;43.704;10.430;2023-04-03T04:14:32;7.70;99.90
23063;DHT22;11699;43.704;10.430;2023-04-03T04:17:00;7.60;99.90
23063;DHT22;11699;43.704;10.430;2023-04-03T04:19:28;7.50;99.90
23063;DHT22;11699;43.704;10.430;2023-04-03T04:21:55;7.50;99.90
23063;DHT22;11699;43.704;10.430;2023-04-03T04:24:24;7.40;99.90
23063;DHT22;11699;43.704;10.430;2023-04-03T04:26:51;7.40;99.90
23063;DHT22;11699;43.704;10.430;2023-04-03T04:29:19;7.30;99.90
23063;DHT22;11699;43.704;10.430;2023-04-03T04:31:46;7.30;99.90
23063;DHT22;11699;43.704;10.430;2023-04-03T04:34:13;7.40;99.90
23063;DHT22;11699;43.704;10.430;2023-04-03T04:36:41;7.30;99.90
23063;DHT22;11699;43.704;10.430;2023-04-03T04:39:08;7.30;99.90
23063;DHT22;11699;43.704;10.430;2023-04-03T04:41:37;7.00;99.90
23063;DHT22;11699;43.704;10.430;2023-04-03T04:44:04;6.70;99.90
23063;DHT22;11699;43.704;10.430;2023-04-03T04:46:32;6.60;99.90
23063;DHT22;11699;43.704;10.430;2023-04-03T04:48:59;6.60;99.90
23063;DHT22;11699;43.704;10.430;2023-04-03T04:51:26;6.70;99.90
23063;DHT22;11699;43.704;10.430;2023-04-03T04:53:53;6.70;99.90
23063;DHT22;11699;43.704;10.430;2023-04-03T04:56:20;6.90;99.90
23063;DHT22;11699;43.704;10.430;2023-04-03T04:58:49;6.90;99.90
23063;DHT22;11699;43.704;10.430;2023-04-03T05:01:16;6.90;99.90
23063;DHT22;11699;43.704;10.430;2023-04-03T05:03:44;6.80;99.90
23063;DHT22;11699;43.704;10.430;2023-04-03T05:06:11;6.90;99.90
23063;DHT22;11699;43.704;10.430;2023-04-03T05:08:38;7.00;99.90
23063;DHT22;11699;43.704;10.430;2023-04-03T05:11:06;7.00;99.90
23063;DHT22;11699;43.704;10.430;2023-04-03T05:13:33;7.00;99.90
23063;DHT22;11699;43.704;10.430;2023-04-03T05:16:01;7.10;99.90
23063;DHT22;11699;43.704;10.430;2023-04-03T05:18:28;7.10;99.90
23063;DHT22;11699;43.704;10.430;2023-04-03T05:20:56;7.10;99.90
23063;DHT22;11699;43.704;10.430;2023-04-03T05:23:23;7.10;99.90
23063;DHT22;11699;43.704;10.430;2023-04-03T05:25:50;7.20;99.90
23063;DHT22;11699;43.704;10.430;2023-04-03T05:28:18;7.40;99.90
23063;DHT22;11699;43.704;10.430;2023-04-03T05:30:45;7.50;99.90
23063;DHT22;11699;43.704;10.430;2023-04-03T05:33:13;7.40;99.90
23063;DHT22;11699;43.704;10.430;2023-04-03T05:35:40;7.50;99.90
23063;DHT22;11699;43.704;10.430;2023-04-03T05:38:09;7.60;99.90
23063;DHT22;11699;43.704;10.430;2023-04-03T05:40:37;7.60;99.90
23063;DHT22;11699;43.704;10.430;2023-04-03T05:43:04;7.70;99.90
23063;DHT22;11699;43.704;10.430;2023-04-03T05:45:31;7.70;99.90
23063;DHT22;11699;43.704;10.430;2023-04-03T05:47:59;7.70;99.90
23063;DHT22;11699;43.704;10.430;2023-04-03T05:50:27;7.90;99.90
23063;DHT22;11699;43.704;10.430;2023-04-03T05:52:57;8.00;99.90
23063;DHT22;11699;43.704;10.430;2023-04-03T05:55:25;8.10;99.90
23063;DHT22;11699;43.704;10.430;2023-04-03T05:57:52;8.20;99.90
23063;DHT22;11699;43.704;10.430;2023-04-03T06:00:20;8.40;99.90
23063;DHT22;11699;43.704;10.430;2023-04-03T06:02:48;8.50;99.90
23063;DHT22;11699;43.704;10.430;2023-04-03T06:05:15;8.60;99.90
23063;DHT22;11699;43.704;10.430;2023-04-03T06:07:44;8.80;99.90
23063;DHT22;11699;43.704;10.430;2023-04-03T06:10:12;9.00;99.90
23063;DHT22;11699;43.704;10.430;2023-04-03T06:12:39;9.20;99.90
23063;DHT22;11699;43.704;10.430;2023-04-03T06:15:08;9.60;99.90
23063;DHT22;11699;43.704;10.430;2023-04-03T06:17:36;10.00;99.90
23063;DHT22;11699;43.704;10.430;2023-04-03T06:20:04;10.80;99.90
23063;DHT22;11699;43.704;10.430;2023-04-03T06:22:31;11.70;99.90
23063;DHT22;11699;43.704;10.430;2023-04-03T06:24:59;12.60;99.90
23063;DHT22;11699;43.704;10.430;2023-04-03T06:27:27;13.40;99.90
23063;DHT22;11699;43.704;10.430;2023-04-03T06:29:54;14.40;99.90
23063;DHT22;11699;43.704;10.430;2023-04-03T06:32:22;14.30;99.90
23063;DHT22;11699;43.704;10.430;2023-04-03T06:34:49;13.60;99.90
23063;DHT22;11699;43.704;10.430;2023-04-03T06:37:18;13.10;99.90
23063;DHT22;11699;43.704;10.430;2023-04-03T06:39:46;12.80;99.90
23063;DHT22;11699;43.704;10.430;2023-04-03T06:42:14;12.60;99.90
23063;DHT22;11699;43.704;10.430;2023-04-03T06:44:42;12.50;99.90
23063;DHT22;11699;43.704;10.430;2023-04-03T06:47:10;12.50;99.90
23063;DHT22;11699;43.704;10.430;2023-04-03T06:49:38;13.40;99.90
23063;DHT22;11699;43.704;10.430;2023-04-03T06:52:05;15.00;99.90
23063;DHT22;11699;43.704;10.430;2023-04-03T06:54:33;16.70;99.90
23063;DHT22;11699;43.704;10.430;2023-04-03T06:57:00;18.10;99.90
23063;DHT22;11699;43.704;10.430;2023-04-03T06:59:29;19.60;99.90
23063;DHT22;11699;43.704;10.430;2023-04-03T07:01:57;20.30;99.90
23063;DHT22;11699;43.704;10.430;2023-04-03T07:04:25;20.60;99.90
23063;DHT22;11699;43.704;10.430;2023-04-03T07:06:53;22.10;99.90
23063;DHT22;11699;43.704;10.430;2023-04-03T07:09:20;21.50;99.70
23063;DHT22;11699;43.704;10.430;2023-04-03T07:11:47;22.90;99.30
23063;DHT22;11699;43.704;10.430;2023-04-03T07:14:14;23.40;98.80
23063;DHT22;11699;43.704;10.430;2023-04-03T07:16:43;24.10;97.90
23063;DHT22;11699;43.704;10.430;2023-04-03T07:19:10;23.40;97.70
23063;DHT22;11699;43.704;10.430;2023-04-03T07:21:38;24.30;97.40
23063;DHT22;11699;43.704;10.430;2023-04-03T07:24:06;24.60;97.10
23063;DHT22;11699;43.704;10.430;2023-04-03T07:26:33;25.20;95.90
23063;DHT22;11699;43.704;10.430;2023-04-03T07:29:01;25.80;95.60
23063;DHT22;11699;43.704;10.430;2023-04-03T07:31:28;26.00;95.00
23063;DHT22;11699;43.704;10.430;2023-04-03T07:33:57;26.00;93.70
23063;DHT22;11699;43.704;10.430;2023-04-03T07:36:24;25.40;94.60
23063;DHT22;11699;43.704;10.430;2023-04-03T07:38:52;25.00;93.70
23063;DHT22;11699;43.704;10.430;2023-04-03T07:41:19;24.80;94.90
23063;DHT22;11699;43.704;10.430;2023-04-03T07:43:48;25.00;94.80
23063;DHT22;11699;43.704;10.430;2023-04-03T07:46:16;24.50;94.70
23063;DHT22;11699;43.704;10.430;2023-04-03T07:48:44;25.40;94.90
23063;DHT22;11699;43.704;10.430;2023-04-03T07:51:13;27.10;94.20
23063;DHT22;11699;43.704;10.430;2023-04-03T07:53:41;28.00;92.90
23063;DHT22;11699;43.704;10.430;2023-04-03T07:56:08;28.80;91.50
23063;DHT22;11699;43.704;10.430;2023-04-03T07:58:36;28.40;91.50
23063;DHT22;11699;43.704;10.430;2023-04-03T08:01:04;28.00;90.10
23063;DHT22;11699;43.704;10.430;2023-04-03T08:03:32;27.40;90.10
23063;DHT22;11699;43.704;10.430;2023-04-03T08:06:02;27.50;88.30
23063;DHT22;11699;43.704;10.430;2023-04-03T08:08:32;28.50;88.70
23063;DHT22;11699;43.704;10.430;2023-04-03T08:11:00;28.60;87.70
23063;DHT22;11699;43.704;10.430;2023-04-03T08:13:29;28.00;87.30
23063;DHT22;11699;43.704;10.430;2023-04-03T08:15:56;28.20;87.70
23063;DHT22;11699;43.704;10.430;2023-04-03T08:18:24;28.20;86.80
23063;DHT22;11699;43.704;10.430;2023-04-03T08:20:52;27.70;86.20
23063;DHT22;11699;43.704;10.430;2023-04-03T08:23:19;27.90;86.50
23063;DHT22;11699;43.704;10.430;2023-04-03T08:25:48;28.50;85.90
23063;DHT22;11699;43.704;10.430;2023-04-03T08:28:15;28.90;83.40
23063;DHT22;11699;43.704;10.430;2023-04-03T08:30:43;27.90;82.20
23063;DHT22;11699;43.704;10.430;2023-04-03T08:33:10;29.20;85.10
23063;DHT22;11699;43.704;10.430;2023-04-03T08:35:41;29.60;82.80
23063;DHT22;11699;43.704;10.430;2023-04-03T08:38:09;30.70;80.50
23063;DHT22;11699;43.704;10.430;2023-04-03T08:40:37;31.70;78.30
23063;DHT22;11699;43.704;10.430;2023-04-03T08:43:24;30.30;78.50
23063;DHT22;11699;43.704;10.430;2023-04-03T08:45:57;31.30;78.40
23063;DHT22;11699;43.704;10.430;2023-04-03T08:48:31;31.90;76.10
23063;DHT22;11699;43.704;10.430;2023-04-03T08:51:02;31.60;74.70
23063;DHT22;11699;43.704;10.430;2023-04-03T08:53:33;30.80;75.90
23063;DHT22;11699;43.704;10.430;2023-04-03T08:56:06;31.00;73.10
23063;DHT22;11699;43.704;10.430;2023-04-03T08:58:42;30.30;74.30
23063;DHT22;11699;43.704;10.430;2023-04-03T09:01:19;30.80;72.70
23063;DHT22;11699;43.704;10.430;2023-04-03T09:03:46;28.90;74.40
23063;DHT22;11699;43.704;10.430;2023-04-03T09:06:17;28.40;77.70
23063;DHT22;11699;43.704;10.430;2023-04-03T09:09:04;27.60;77.20
23063;DHT22;11699;43.704;10.430;2023-04-03T09:11:44;28.10;73.30
23063;DHT22;11699;43.704;10.430;2023-04-03T09:14:19;28.00;77.60
23063;DHT22;11699;43.704;10.430;2023-04-03T09:16:54;28.70;74.30
23063;DHT22;11699;43.704;10.430;2023-04-03T09:19:34;30.50;74.40
23063;DHT22;11699;43.704;10.430;2023-04-03T09:22:13;31.20;72.80
23063;DHT22;11699;43.704;10.430;2023-04-03T09:24:41;28.30;73.30
23063;DHT22;11699;43.704;10.430;2023-04-03T09:27:10;27.60;73.40
23063;DHT22;11699;43.704;10.430;2023-04-03T09:29:41;27.80;72.40
23063;DHT22;11699;43.704;10.430;2023-04-03T09:32:21;28.20;74.10
23063;DHT22;11699;43.704;10.430;2023-04-03T09:34:51;29.00;73.60
23063;DHT22;11699;43.704;10.430;2023-04-03T09:37:38;30.40;72.00
23063;DHT22;11699;43.704;10.430;2023-04-03T09:40:27;30.10;70.30
23063;DHT22;11699;43.704;10.430;2023-04-03T09:42:56;29.60;71.50
23063;DHT22;11699;43.704;10.430;2023-04-03T09:45:27;29.80;72.70
23063;DHT22;11699;43.704;10.430;2023-04-03T09:48:07;28.90;69.70
23063;DHT22;11699;43.704;10.430;2023-04-03T09:50:36;27.60;73.60
23063;DHT22;11699;43.704;10.430;2023-04-03T09:53:12;28.70;73.40
23063;DHT22;11699;43.704;10.430;2023-04-03T09:55:52;28.20;72.40
23063;DHT22;11699;43.704;10.430;2023-04-03T09:58:27;28.60;73.60
23063;DHT22;11699;43.704;10.430;2023-04-03T10:00:59;29.90;70.80
23063;DHT22;11699;43.704;10.430;2023-04-03T10:03:31;29.50;71.40
23063;DHT22;11699;43.704;10.430;2023-04-03T10:06:01;29.40;68.40
23063;DHT22;11699;43.704;10.430;2023-04-03T10:08:30;30.00;69.90
23063;DHT22;11699;43.704;10.430;2023-04-03T10:11:12;28.80;69.70
23063;DHT22;11699;43.704;10.430;2023-04-03T10:13:55;28.30;68.90
23063;DHT22;11699;43.704;10.430;2023-04-03T10:16:31;29.00;69.40
23063;DHT22;11699;43.704;10.430;2023-04-03T10:19:20;28.00;68.30
23063;DHT22;11699;43.704;10.430;2023-04-03T10:21:57;28.00;68.80
23063;DHT22;11699;43.704;10.430;2023-04-03T10:24:34;29.60;70.10
23063;DHT22;11699;43.704;10.430;2023-04-03T10:27:07;30.40;68.30
23063;DHT22;11699;43.704;10.430;2023-04-03T10:29:42;30.70;66.80
23063;DHT22;11699;43.704;10.430;2023-04-03T10:35:18;31.20;68.10
23063;DHT22;11699;43.704;10.430;2023-04-03T10:37:57;32.10;65.00
23063;DHT22;11699;43.704;10.430;2023-04-03T10:40:30;30.00;64.80
23063;DHT22;11699;43.704;10.430;2023-04-03T10:43:06;29.00;67.60
23063;DHT22;11699;43.704;10.430;2023-04-03T10:45:49;30.50;66.50
23063;DHT22;11699;43.704;10.430;2023-04-03T10:51:29;32.20;67.00
23063;DHT22;11699;43.704;10.430;2023-04-03T10:54:04;32.20;61.50
23063;DHT22;11699;43.704;10.430;2023-04-03T10:56:37;28.60;64.00
23063;DHT22;11699;43.704;10.430;2023-04-03T10:59:16;29.60;67.90
23063;DHT22;11699;43.704;10.430;2023-04-03T11:01:46;30.10;64.80
23063;DHT22;11699;43.704;10.430;2023-04-03T11:04:16;30.50;67.00
23063;DHT22;11699;43.704;10.430;2023-04-03T11:06:50;29.30;67.50
23063;DHT22;11699;43.704;10.430;2023-04-03T11:09:24;26.90;67.60
23063;DHT22;11699;43.704;10.430;2023-04-03T11:11:56;23.80;69.30
23063;DHT22;11699;43.704;10.430;2023-04-03T11:14:28;23.00;71.30
23063;DHT22;11699;43.704;10.430;2023-04-03T11:17:05;23.10;72.70
23063;DHT22;11699;43.704;10.430;2023-04-03T11:19:39;23.70;73.00
23063;DHT22;11699;43.704;10.430;2023-04-03T11:22:16;25.00;72.80
23063;DHT22;11699;43.704;10.430;2023-04-03T11:24:55;25.90;70.00
23063;DHT22;11699;43.704;10.430;2023-04-03T11:27:25;26.50;69.70
23063;DHT22;11699;43.704;10.430;2023-04-03T11:29:57;26.70;68.90
23063;DHT22;11699;43.704;10.430;2023-04-03T11:35:21;26.90;69.50
23063;DHT22;11699;43.704;10.430;2023-04-03T11:37:52;27.20;69.20
23063;DHT22;11699;43.704;10.430;2023-04-03T11:40:24;27.50;68.10
23063;DHT22;11699;43.704;10.430;2023-04-03T11:42:54;28.70;70.00
23063;DHT22;11699;43.704;10.430;2023-04-03T11:45:31;27.90;70.00
23063;DHT22;11699;43.704;10.430;2023-04-03T11:48:01;27.70;67.60
23063;DHT22;11699;43.704;10.430;2023-04-03T11:50:47;28.40;67.90
23063;DHT22;11699;43.704;10.430;2023-04-03T11:53:35;28.60;67.00
23063;DHT22;11699;43.704;10.430;2023-04-03T11:56:27;28.60;65.10
23063;DHT22;11699;43.704;10.430;2023-04-03T11:59:15;29.60;67.40
23063;DHT22;11699;43.704;10.430;2023-04-03T12:01:46;27.50;67.20
23063;DHT22;11699;43.704;10.430;2023-04-03T12:04:15;27.90;68.70
23063;DHT22;11699;43.704;10.430;2023-04-03T12:06:53;28.00;67.40
23063;DHT22;11699;43.704;10.430;2023-04-03T12:12:40;28.40;64.90
23063;DHT22;11699;43.704;10.430;2023-04-03T12:18:43;28.00;67.90
23063;DHT22;11699;43.704;10.430;2023-04-03T12:21:12;27.90;65.50
23063;DHT22;11699;43.704;10.430;2023-04-03T12:24:01;26.90;68.70
23063;DHT22;11699;43.704;10.430;2023-04-03T12:26:33;26.50;67.20
23063;DHT22;11699;43.704;10.430;2023-04-03T12:29:13;26.40;67.50
23063;DHT22;11699;43.704;10.430;2023-04-03T12:31:47;26.50;67.40
23063;DHT22;11699;43.704;10.430;2023-04-03T12:34:29;26.50;67.60
23063;DHT22;11699;43.704;10.430;2023-04-03T12:37:06;27.20;66.40
23063;DHT22;11699;43.704;10.430;2023-04-03T12:39:53;27.00;67.50
23063;DHT22;11699;43.704;10.430;2023-04-03T12:42:34;27.40;69.10
23063;DHT22;11699;43.704;10.430;2023-04-03T12:45:16;27.30;66.80
23063;DHT22;11699;43.704;10.430;2023-04-03T12:47:48;27.90;67.60
23063;DHT22;11699;43.704;10.430;2023-04-03T12:50:20;27.50;64.90
23063;DHT22;11699;43.704;10.430;2023-04-03T12:52:54;27.40;67.10
23063;DHT22;11699;43.704;10.430;2023-04-03T12:55:23;26.90;66.50
23063;DHT22;11699;43.704;10.430;2023-04-03T12:57:51;27.00;64.20
23063;DHT22;11699;43.704;10.430;2023-04-03T13:00:29;27.00;65.30
23063;DHT22;11699;43.704;10.430;2023-04-03T13:02:59;27.20;67.10
23063;DHT22;11699;43.704;10.430;2023-04-03T13:05:27;28.60;66.10
23063;DHT22;11699;43.704;10.430;2023-04-03T13:07:59;28.60;67.10
23063;DHT22;11699;43.704;10.430;2023-04-03T13:10:27;29.40;65.70
23063;DHT22;11699;43.704;10.430;2023-04-03T13:12:56;28.60;62.70
23063;DHT22;11699;43.704;10.430;2023-04-03T13:15:27;27.60;63.70
23063;DHT22;11699;43.704;10.430;2023-04-03T13:17:55;27.40;65.20
23063;DHT22;11699;43.704;10.430;2023-04-03T13:20:25;27.80;66.80
23063;DHT22;11699;43.704;10.430;2023-04-03T13:22:56;28.90;63.30
23063;DHT22;11699;43.704;10.430;2023-04-03T13:25:27;27.80;60.70
23063;DHT22;11699;43.704;10.430;2023-04-03T13:27:56;27.00;66.10
23063;DHT22;11699;43.704;10.430;2023-04-03T13:30:28;27.90;63.90
23063;DHT22;11699;43.704;10.430;2023-04-03T13:32:57;27.50;63.40
23063;DHT22;11699;43.704;10.430;2023-04-03T13:35:28;27.20;64.60
23063;DHT22;11699;43.704;10.430;2023-04-03T13:37:59;27.10;64.60
23063;DHT22;11699;43.704;10.430;2023-04-03T13:40:27;26.50;62.70
23063;DHT22;11699;43.704;10.430;2023-04-03T13:43:14;26.20;64.30
23063;DHT22;11699;43.704;10.430;2023-04-03T13:46:05;26.50;64.80
23063;DHT22;11699;43.704;10.430;2023-04-03T13:48:49;26.10;63.60
23063;DHT22;11699;43.704;10.430;2023-04-03T13:51:21;25.70;65.10
23063;DHT22;11699;43.704;10.430;2023-04-03T13:53:51;25.70;65.20
23063;DHT22;11699;43.704;10.430;2023-04-03T13:56:25;25.50;65.30
23063;DHT22;11699;43.704;10.430;2023-04-03T13:58:56;26.90;65.10
23063;DHT22;11699;43.704;10.430;2023-04-03T14:01:25;26.20;63.30
23063;DHT22;11699;43.704;10.430;2023-04-03T14:03:55;25.00;64.30
23063;DHT22;11699;43.704;10.430;2023-04-03T14:06:23;25.10;65.30
23063;DHT22;11699;43.704;10.430;2023-04-03T14:08:51;25.00;65.20
23063;DHT22;11699;43.704;10.430;2023-04-03T14:11:21;26.20;65.90
23063;DHT22;11699;43.704;10.430;2023-04-03T14:13:49;27.90;64.30
23063;DHT22;11699;43.704;10.430;2023-04-03T14:16:21;27.40;62.80
23063;DHT22;11699;43.704;10.430;2023-04-03T14:18:51;26.80;63.40
23063;DHT22;11699;43.704;10.430;2023-04-03T14:21:20;27.00;62.60
23063;DHT22;11699;43.704;10.430;2023-04-03T14:23:48;26.80;64.00
23063;DHT22;11699;43.704;10.430;2023-04-03T14:26:18;26.10;63.60
23063;DHT22;11699;43.704;10.430;2023-04-03T14:28:48;25.50;63.00
23063;DHT22;11699;43.704;10.430;2023-04-03T14:31:16;23.70;63.90
23063;DHT22;11699;43.704;10.430;2023-04-03T14:33:44;23.30;65.60
23063;DHT22;11699;43.704;10.430;2023-04-03T14:36:15;22.60;66.00
23063;DHT22;11699;43.704;10.430;2023-04-03T14:38:44;22.00;65.60
23063;DHT22;11699;43.704;10.430;2023-04-03T14:41:13;22.10;65.70
23063;DHT22;11699;43.704;10.430;2023-04-03T14:43:41;23.20;65.90
23063;DHT22;11699;43.704;10.430;2023-04-03T14:46:13;24.80;67.20
23063;DHT22;11699;43.704;10.430;2023-04-03T14:48:41;24.10;64.90
23063;DHT22;11699;43.704;10.430;2023-04-03T14:51:10;24.20;63.60
23063;DHT22;11699;43.704;10.430;2023-04-03T14:53:40;24.10;64.40
23063;DHT22;11699;43.704;10.430;2023-04-03T14:56:13;25.00;64.10
23063;DHT22;11699;43.704;10.430;2023-04-03T14:58:41;25.90;63.70
23063;DHT22;11699;43.704;10.430;2023-04-03T15:01:10;25.90;62.50
23063;DHT22;11699;43.704;10.430;2023-04-03T15:03:37;25.20;61.70
23063;DHT22;11699;43.704;10.430;2023-04-03T15:06:05;25.00;62.70
23063;DHT22;11699;43.704;10.430;2023-04-03T15:08:32;24.60;63.90
23063;DHT22;11699;43.704;10.430;2023-04-03T15:11:01;24.50;61.60
23063;DHT22;11699;43.704;10.430;2023-04-03T15:13:29;23.10;64.70
23063;DHT22;11699;43.704;10.430;2023-04-03T15:15:56;22.90;63.10
23063;DHT22;11699;43.704;10.430;2023-04-03T15:18:25;21.70;62.30
23063;DHT22;11699;43.704;10.430;2023-04-03T15:20:54;21.40;65.70
23063;DHT22;11699;43.704;10.430;2023-04-03T15:23:21;21.10;65.80
23063;DHT22;11699;43.704;10.430;2023-04-03T15:25:52;21.60;64.20
23063;DHT22;11699;43.704;10.430;2023-04-03T15:28:23;21.50;64.10
23063;DHT22;11699;43.704;10.430;2023-04-03T15:30:52;21.30;64.20
23063;DHT22;11699;43.704;10.430;2023-04-03T15:33:20;20.70;65.30
23063;DHT22;11699;43.704;10.430;2023-04-03T15:35:47;20.50;65.10
23063;DHT22;11699;43.704;10.430;2023-04-03T15:38:14;20.60;65.00
23063;DHT22;11699;43.704;10.430;2023-04-03T15:40:42;20.50;63.00
23063;DHT22;11699;43.704;10.430;2023-04-03T15:43:09;19.50;63.00
23063;DHT22;11699;43.704;10.430;2023-04-03T15:45:38;19.10;65.70
23063;DHT22;11699;43.704;10.430;2023-04-03T15:48:06;19.40;65.50
23063;DHT22;11699;43.704;10.430;2023-04-03T15:50:35;19.00;64.40
23063;DHT22;11699;43.704;10.430;2023-04-03T15:53:02;19.00;64.50
23063;DHT22;11699;43.704;10.430;2023-04-03T15:55:31;19.60;66.00
23063;DHT22;11699;43.704;10.430;2023-04-03T15:57:59;19.70;66.30